Sargodha Weather



Sargodha's Current Weather

Temprature 24.73o light rain

light rain

Rain: 113 %

Min Temprature24.73o
Max Temprature24.73o
Humidity46
Wind Speed6.36 m/h
Sun Rise06:14:19
Sun Set17:34:27
Current Time: 18-Oct-2019 15:59:38
Lat/Lon: 32.09, 72.68




Sargodha's Geo Location



Sargodha's Weather Forecast

Time Overall Temp Min Temp Max Temp Humidity Wind Speed Rain
18-Oct-2019 (Fri)
17:00:00 light rain 16.370 16.370 24.730 46 6.36 m/h 113 %
20:00:00 moderate rain 15.970 15.970 22.240 51 1.34 m/h 463 %
23:00:00 light rain 18.870 18.870 23.048 49 0.92 m/h 69 %
19-Oct-2019 (Sat)
02:00:00 broken clouds 20.170 20.170 22.258 52 2.25 m/h 0 %
05:00:00 broken clouds 21.813 21.813 21.813 56 0.49 m/h 0 %
08:00:00 scattered clouds 24.111 24.111 24.111 47 1.79 m/h 0 %
11:00:00 few clouds 30.590 30.590 30.590 29 0.7 m/h 0 %
14:00:00 clear sky 33.416 33.416 33.416 19 0.93 m/h 0 %
17:00:00 clear sky 31.282 31.282 31.282 22 1.99 m/h 0 %
20:00:00 clear sky 27.308 27.308 27.308 27 3.61 m/h 0 %
23:00:00 clear sky 25.167 25.167 25.167 33 2.61 m/h 0 %
20-Oct-2019 (Sun)
02:00:00 clear sky 24.207 24.207 24.207 34 1.6 m/h 0 %
05:00:00 clear sky 23.284 23.284 23.284 35 1.41 m/h 0 %
08:00:00 scattered clouds 25.962 25.962 25.962 30 1.2 m/h 0 %
11:00:00 broken clouds 31.700 31.700 31.700 21 0.99 m/h 0 %
14:00:00 overcast clouds 33.122 33.122 33.122 17 2.58 m/h 0 %
17:00:00 overcast clouds 31.098 31.098 31.098 22 2.2 m/h 0 %
20:00:00 clear sky 27.782 27.782 27.782 26 1.23 m/h 0 %
23:00:00 clear sky 25.467 25.467 25.467 30 2.07 m/h 0 %
21-Oct-2019 (Mon)
02:00:00 clear sky 23.890 23.890 23.890 32 3.04 m/h 0 %
05:00:00 clear sky 22.421 22.421 22.421 35 1.64 m/h 0 %
08:00:00 clear sky 25.079 25.079 25.079 29 2.05 m/h 0 %
11:00:00 clear sky 32.027 32.027 32.027 19 1.03 m/h 0 %
14:00:00 clear sky 34.375 34.375 34.375 15 0.59 m/h 0 %
17:00:00 scattered clouds 31.694 31.694 31.694 18 2.53 m/h 0 %
20:00:00 overcast clouds 27.664 27.664 27.664 23 1.76 m/h 0 %
23:00:00 broken clouds 25.330 25.330 25.330 26 1.86 m/h 0 %
22-Oct-2019 (Tue)
02:00:00 clear sky 23.886 23.886 23.886 29 1.66 m/h 0 %
05:00:00 clear sky 22.529 22.529 22.529 31 2.61 m/h 0 %
08:00:00 clear sky 24.912 24.912 24.912 29 2.34 m/h 0 %
11:00:00 clear sky 32.119 32.119 32.119 18 2.06 m/h 0 %
14:00:00 scattered clouds 34.819 34.819 34.819 12 0.69 m/h 0 %
17:00:00 few clouds 31.902 31.902 31.902 15 2.21 m/h 0 %
20:00:00 clear sky 27.150 27.150 27.150 21 1.33 m/h 0 %
23:00:00 clear sky 25.699 25.699 25.699 23 1.69 m/h 0 %
23-Oct-2019 (Wed)
02:00:00 few clouds 23.936 23.936 23.936 25 3.03 m/h 0 %
05:00:00 few clouds 21.787 21.787 21.787 31 2.52 m/h 0 %
08:00:00 clear sky 23.899 23.899 23.899 27 2.98 m/h 0 %
11:00:00 clear sky 31.005 31.005 31.005 15 2.64 m/h 0 %
14:00:00 clear sky 34.029 34.029 34.029 12 1.74 m/h 0 %

Famous Cities (61)